createdAt,value
2018-08-06T00:00:31.700Z,12.60
2018-08-06T00:03:00.323Z,11.00
2018-08-06T00:05:28.989Z,11.70
2018-08-06T00:07:57.771Z,10.57
2018-08-06T00:10:27.283Z,11.33
2018-08-06T00:12:56.030Z,11.77
2018-08-06T00:15:24.712Z,11.80
2018-08-06T00:17:54.382Z,11.87
2018-08-06T00:20:23.053Z,11.77
2018-08-06T00:22:51.673Z,11.47
2018-08-06T00:25:20.373Z,11.97
2018-08-06T00:27:54.385Z,11.93
2018-08-06T00:30:23.068Z,11.90
2018-08-06T00:32:51.704Z,11.90
2018-08-06T00:35:20.398Z,12.13
2018-08-06T00:37:49.026Z,11.60
2018-08-06T00:40:19.498Z,11.20
2018-08-06T00:42:48.581Z,11.53
2018-08-06T00:45:19.056Z,12.17
2018-08-06T00:47:48.230Z,14.23
2018-08-06T00:50:16.893Z,12.73
2018-08-06T00:52:45.671Z,12.43
2018-08-06T00:55:16.336Z,13.53
2018-08-06T00:57:45.090Z,13.40
2018-08-06T01:00:15.011Z,12.80
2018-08-06T01:02:44.395Z,12.87
2018-08-06T01:07:48.082Z,12.13
2018-08-06T01:10:19.117Z,12.47
2018-08-06T01:12:47.806Z,12.80
2018-08-06T01:15:18.362Z,12.90
2018-08-06T01:17:47.142Z,11.30
2018-08-06T01:20:16.167Z,10.97
2018-08-06T01:22:45.768Z,11.70
2018-08-06T01:25:14.877Z,11.60
2018-08-06T01:27:43.628Z,12.10
2018-08-06T01:30:13.621Z,11.77
2018-08-06T01:32:42.265Z,11.27
2018-08-06T01:35:11.722Z,11.20
2018-08-06T01:37:40.453Z,11.20
2018-08-06T01:40:11.438Z,11.07
2018-08-06T01:42:40.389Z,11.27
2018-08-06T01:45:09.514Z,12.07
2018-08-06T01:47:38.549Z,11.73
2018-08-06T01:50:07.910Z,11.53
2018-08-06T01:52:36.594Z,11.13
2018-08-06T01:55:05.824Z,11.77
2018-08-06T01:57:34.588Z,12.63
2018-08-06T02:00:03.439Z,12.17
2018-08-06T02:02:32.063Z,11.90
2018-08-06T02:05:00.709Z,10.70
2018-08-06T02:07:29.533Z,11.07
2018-08-06T02:09:58.142Z,11.13
2018-08-06T02:12:26.763Z,11.10
2018-08-06T02:14:55.393Z,11.37
2018-08-06T02:17:24.027Z,10.87
2018-08-06T02:19:52.715Z,11.20
2018-08-06T02:22:21.346Z,10.60
2018-08-06T02:24:50.039Z,10.57
2018-08-06T02:27:18.685Z,10.20
2018-08-06T02:29:47.278Z,10.93
2018-08-06T02:32:15.892Z,10.37
2018-08-06T02:34:44.553Z,10.23
2018-08-06T02:37:13.147Z,9.93
2018-08-06T02:39:41.758Z,10.10
2018-08-06T02:42:10.590Z,10.33
2018-08-06T02:44:39.242Z,9.87
2018-08-06T02:47:07.929Z,10.90
2018-08-06T02:49:36.583Z,10.13
2018-08-06T02:52:05.406Z,10.10
2018-08-06T02:54:34.021Z,9.33
2018-08-06T02:57:02.791Z,10.43
2018-08-06T02:59:31.387Z,10.77
2018-08-06T03:02:00.010Z,10.50
2018-08-06T03:04:28.657Z,10.17
2018-08-06T03:06:57.471Z,10.07
2018-08-06T03:09:26.114Z,10.63
2018-08-06T03:11:54.809Z,11.00
2018-08-06T03:14:23.449Z,9.97
2018-08-06T03:16:52.106Z,11.00
2018-08-06T03:19:20.765Z,10.77
2018-08-06T03:21:49.360Z,11.60
2018-08-06T03:24:17.976Z,11.07
2018-08-06T03:26:46.615Z,9.57
2018-08-06T03:29:15.312Z,11.07
2018-08-06T03:31:43.915Z,11.50
2018-08-06T03:34:12.556Z,11.37
2018-08-06T03:36:41.193Z,11.97
2018-08-06T03:39:11.130Z,12.00
2018-08-06T03:41:39.815Z,11.73
2018-08-06T03:44:08.881Z,11.97
2018-08-06T03:46:37.630Z,10.50
2018-08-06T03:49:06.390Z,11.23
2018-08-06T03:51:35.030Z,10.57
2018-08-06T03:54:03.700Z,11.03
2018-08-06T03:56:32.321Z,11.10
2018-08-06T03:59:01.038Z,10.43
2018-08-06T04:01:29.677Z,11.33
2018-08-06T04:03:58.417Z,11.73
2018-08-06T04:06:27.039Z,10.90
2018-08-06T04:08:55.701Z,10.93
2018-08-06T04:11:24.284Z,11.20
2018-08-06T04:13:53.567Z,9.93
2018-08-06T04:16:22.269Z,10.87
2018-08-06T04:18:51.077Z,10.77
2018-08-06T04:21:19.717Z,10.60
2018-08-06T04:23:48.403Z,11.07
2018-08-06T04:26:17.040Z,10.80
2018-08-06T04:28:45.625Z,9.77
2018-08-06T04:31:14.305Z,10.37
2018-08-06T04:33:42.896Z,9.43
2018-08-06T04:36:11.539Z,9.50
2018-08-06T04:38:40.192Z,9.07
2018-08-06T04:41:08.850Z,10.10
2018-08-06T04:43:37.465Z,9.30
2018-08-06T04:46:06.316Z,10.10
2018-08-06T04:48:34.943Z,10.23
2018-08-06T04:51:04.001Z,10.20
2018-08-06T04:53:32.701Z,9.73
2018-08-06T04:56:01.407Z,10.23
2018-08-06T04:58:30.186Z,8.40
2018-08-06T05:00:58.974Z,9.60
2018-08-06T05:03:28.046Z,8.63
2018-08-06T05:05:56.651Z,9.20
2018-08-06T05:08:25.285Z,9.13
2018-08-06T05:10:53.951Z,8.70
2018-08-06T05:13:29.357Z,9.60
2018-08-06T05:15:58.269Z,10.47
2018-08-06T05:18:27.069Z,8.30
2018-08-06T05:20:55.799Z,7.63
2018-08-06T05:23:34.465Z,8.57
2018-08-06T05:26:03.676Z,8.77
2018-08-06T05:28:32.991Z,9.03
2018-08-06T05:31:01.751Z,8.70
2018-08-06T05:33:31.685Z,8.60
2018-08-06T05:36:00.538Z,8.87
2018-08-06T05:38:30.248Z,8.80
2018-08-06T05:40:58.850Z,8.87
2018-08-06T05:43:33.178Z,8.50
2018-08-06T05:46:02.832Z,8.70
2018-08-06T05:48:31.795Z,8.27
2018-08-06T05:51:02.205Z,9.20
2018-08-06T05:53:33.055Z,8.60
2018-08-06T05:56:01.763Z,7.87
2018-08-06T05:58:30.701Z,8.00
2018-08-06T06:00:59.357Z,8.10
2018-08-06T06:03:28.472Z,8.43
2018-08-06T06:05:57.239Z,8.67
2018-08-06T06:08:26.394Z,8.43
2018-08-06T06:10:55.113Z,7.87
2018-08-06T06:13:23.735Z,8.20
2018-08-06T06:15:52.426Z,7.97
2018-08-06T06:18:21.126Z,7.20
2018-08-06T06:20:49.856Z,7.73
2018-08-06T06:23:18.568Z,7.20
2018-08-06T06:25:47.681Z,7.07
2018-08-06T06:28:16.305Z,7.37
2018-08-06T06:30:45.004Z,7.30
2018-08-06T06:33:13.648Z,7.47
2018-08-06T06:35:44.611Z,6.80
2018-08-06T06:38:13.376Z,6.50
2018-08-06T06:40:42.068Z,6.43
2018-08-06T06:43:10.806Z,6.17
2018-08-06T06:45:39.522Z,5.97
2018-08-06T06:48:08.349Z,6.20
2018-08-06T06:50:37.094Z,5.63
2018-08-06T06:53:05.885Z,5.30
2018-08-06T06:55:34.522Z,6.00
2018-08-06T06:58:03.383Z,5.60
2018-08-06T07:00:32.227Z,4.70
2018-08-06T07:03:01.100Z,4.90
2018-08-06T07:05:29.851Z,4.67
2018-08-06T07:07:59.097Z,5.50
2018-08-06T07:10:30.680Z,5.13
2018-08-06T07:12:59.374Z,4.83
2018-08-06T07:15:28.067Z,5.07
2018-08-06T07:17:56.814Z,4.80
2018-08-06T07:20:25.768Z,5.20
2018-08-06T07:22:54.470Z,5.80
2018-08-06T07:25:23.257Z,5.40
2018-08-06T07:27:52.138Z,4.77
2018-08-06T07:30:20.897Z,5.60
2018-08-06T07:32:50.246Z,6.10
2018-08-06T07:35:19.770Z,5.00
2018-08-06T07:37:49.025Z,4.80
2018-08-06T07:40:17.825Z,5.63
2018-08-06T07:42:46.541Z,5.00
2018-08-06T07:45:18.158Z,5.30
2018-08-06T07:47:47.484Z,5.10
2018-08-06T07:50:18.231Z,5.10
2018-08-06T07:52:47.704Z,5.07
2018-08-06T07:55:17.146Z,5.60
2018-08-06T07:57:46.040Z,5.10
2018-08-06T08:00:17.398Z,5.10
2018-08-06T08:02:46.772Z,4.90
2018-08-06T08:05:16.613Z,5.03
2018-08-06T08:07:46.275Z,4.60
2018-08-06T08:10:18.681Z,4.57
2018-08-06T08:12:47.863Z,5.10
2018-08-06T08:15:22.893Z,4.77
2018-08-06T08:17:51.763Z,5.37
2018-08-06T08:20:20.816Z,5.40
2018-08-06T08:22:49.456Z,4.50
2018-08-06T08:25:20.202Z,5.00
2018-08-06T08:27:49.069Z,4.50
2018-08-06T08:30:18.510Z,4.73
2018-08-06T08:32:47.165Z,4.87
2018-08-06T08:35:16.834Z,5.13
2018-08-06T08:37:45.549Z,4.50
2018-08-06T08:40:16.193Z,4.90
2018-08-06T08:42:45.181Z,5.30
2018-08-06T08:45:15.244Z,4.77
2018-08-06T08:47:44.733Z,5.50
2018-08-06T08:50:16.800Z,5.00
2018-08-06T08:52:45.481Z,4.70
2018-08-06T08:55:15.711Z,4.90
2018-08-06T08:57:44.481Z,5.27
2018-08-06T09:00:15.836Z,4.90
2018-08-06T09:02:45.850Z,5.13
2018-08-06T09:05:15.106Z,5.53
2018-08-06T09:07:44.123Z,5.30
2018-08-06T09:10:14.141Z,4.80
2018-08-06T09:12:43.351Z,5.57
2018-08-06T09:15:24.939Z,4.77
2018-08-06T09:17:53.614Z,5.10
2018-08-06T09:20:22.530Z,5.60
2018-08-06T09:22:51.195Z,5.23
2018-08-06T09:25:19.855Z,5.47
2018-08-06T09:27:49.748Z,5.20
2018-08-06T09:30:19.963Z,5.00
2018-08-06T09:32:50.659Z,5.00
2018-08-06T09:35:19.809Z,4.93
2018-08-06T09:37:48.444Z,5.67
2018-08-06T09:40:18.363Z,5.00
2018-08-06T09:42:50.745Z,4.60
2018-08-06T09:45:20.468Z,4.97
2018-08-06T09:47:50.434Z,5.10
2018-08-06T09:50:19.676Z,5.83
2018-08-06T09:52:49.435Z,5.30
2018-08-06T09:55:21.255Z,4.90
2018-08-06T09:57:50.371Z,5.10
2018-08-06T10:13:17.647Z,5.50
2018-08-06T10:15:46.306Z,5.20
2018-08-06T10:18:14.998Z,6.20
2018-08-06T10:20:43.641Z,5.10
2018-08-06T10:23:12.257Z,5.00
2018-08-06T10:25:40.914Z,5.33
2018-08-06T10:28:09.558Z,5.17
2018-08-06T10:30:38.272Z,5.57
2018-08-06T10:33:06.951Z,4.83
2018-08-06T10:35:35.586Z,5.13
2018-08-06T10:38:04.249Z,5.40
2018-08-06T10:40:33.111Z,4.90
2018-08-06T10:43:01.740Z,5.33
2018-08-06T10:45:30.409Z,5.20
2018-08-06T10:47:59.114Z,5.57
2018-08-06T10:50:27.821Z,5.30
2018-08-06T10:52:56.501Z,4.50
2018-08-06T10:55:25.320Z,5.23
2018-08-06T10:57:54.051Z,6.03
2018-08-06T11:00:23.751Z,4.90
2018-08-06T11:02:53.242Z,5.80
2018-08-06T11:05:21.967Z,5.10
2018-08-06T11:07:50.681Z,5.10
2018-08-06T11:10:20.682Z,5.57
2018-08-06T11:12:50.161Z,4.83
2018-08-06T11:15:20.090Z,5.40
2018-08-06T11:17:48.906Z,4.60
2018-08-06T11:20:18.342Z,4.80
2018-08-06T11:22:46.958Z,5.23
2018-08-06T11:25:17.474Z,5.00
2018-08-06T11:27:46.329Z,5.20
2018-08-06T11:30:16.806Z,5.10
2018-08-06T11:32:46.045Z,4.83
2018-08-06T11:35:15.270Z,4.53
2018-08-06T11:37:43.953Z,5.20
2018-08-06T11:40:14.175Z,5.53
2018-08-06T11:42:43.958Z,4.50
2018-08-06T11:45:14.929Z,4.73
2018-08-06T11:47:43.685Z,5.20
2018-08-06T11:50:12.396Z,4.50
2018-08-06T11:52:41.055Z,4.40
2018-08-06T11:55:10.364Z,4.20
2018-08-06T11:57:39.018Z,4.40
2018-08-06T12:00:13.184Z,4.57
2018-08-06T12:02:42.032Z,4.87
2018-08-06T12:05:11.806Z,4.37
2018-08-06T12:07:40.643Z,5.10
2018-08-06T12:10:15.469Z,5.00
2018-08-06T12:12:45.589Z,4.23
2018-08-06T12:15:14.425Z,4.53
2018-08-06T12:17:43.410Z,4.33
2018-08-06T12:20:14.947Z,4.40
2018-08-06T12:22:44.861Z,4.63
2018-08-06T12:25:14.485Z,4.60
2018-08-06T12:27:43.693Z,4.60
2018-08-06T12:30:15.229Z,4.00
2018-08-06T12:32:44.808Z,4.57
2018-08-06T12:35:13.955Z,5.27
2018-08-06T12:37:42.800Z,4.40
2018-08-06T12:40:14.593Z,4.60
2018-08-06T12:42:43.497Z,4.80
2018-08-06T12:45:15.692Z,5.00
2018-08-06T12:47:45.014Z,4.23
2018-08-06T12:50:14.726Z,5.00
2018-08-06T12:52:43.822Z,4.57
2018-08-06T12:55:13.657Z,5.10
2018-08-06T12:57:43.038Z,4.07
2018-08-06T13:00:17.806Z,4.43
2018-08-06T13:02:47.481Z,3.90
2018-08-06T13:05:16.365Z,4.17
2018-08-06T13:07:45.027Z,4.28
2018-08-06T13:10:14.495Z,4.33
2018-08-06T13:12:43.214Z,4.17
2018-08-06T13:15:13.082Z,3.93
2018-08-06T13:17:41.767Z,3.97
2018-08-06T13:20:10.662Z,3.40
2018-08-06T13:22:39.358Z,3.90
2018-08-06T13:25:10.008Z,3.80
2018-08-06T13:27:38.749Z,3.73
2018-08-06T13:30:09.673Z,4.10
2018-08-06T13:32:38.454Z,4.37
2018-08-06T13:35:07.102Z,4.13
2018-08-06T13:37:35.761Z,3.73
2018-08-06T13:40:10.037Z,3.90
2018-08-06T13:42:39.059Z,4.30
2018-08-06T13:45:09.755Z,4.10
2018-08-06T13:47:38.618Z,4.33
2018-08-06T13:50:08.205Z,4.50
2018-08-06T13:52:37.300Z,4.13
2018-08-06T13:55:07.117Z,4.60
2018-08-06T13:57:35.969Z,4.50
2018-08-06T14:00:08.802Z,4.60
2018-08-06T14:02:37.541Z,4.03
2018-08-06T14:05:07.204Z,3.83
2018-08-06T14:07:35.965Z,4.10
2018-08-06T14:10:05.434Z,4.57
2018-08-06T14:12:34.105Z,4.53
2018-08-06T14:15:02.758Z,4.10
2018-08-06T14:17:31.483Z,3.70
2018-08-06T14:20:00.496Z,3.63
2018-08-06T14:22:29.245Z,3.50
2018-08-06T14:24:58.046Z,3.50
2018-08-06T14:27:26.729Z,3.53
2018-08-06T14:29:55.442Z,3.90
2018-08-06T14:32:24.178Z,3.70
2018-08-06T14:34:52.900Z,3.60
2018-08-06T14:37:21.610Z,3.67
2018-08-06T14:39:50.369Z,3.73
2018-08-06T14:42:19.438Z,3.80
2018-08-06T14:44:48.260Z,3.60
2018-08-06T14:47:17.247Z,3.00
2018-08-06T14:49:47.694Z,2.95
2018-08-06T14:52:16.514Z,2.87
2018-08-06T14:54:45.423Z,2.87
2018-08-06T14:57:14.145Z,3.37
2018-08-06T14:59:43.270Z,3.27
2018-08-06T15:02:11.983Z,2.70
2018-08-06T15:04:40.695Z,2.70
2018-08-06T15:07:09.393Z,3.10
2018-08-06T15:09:38.382Z,3.27
2018-08-06T15:12:07.432Z,3.00
2018-08-06T15:14:36.165Z,2.80
2018-08-06T15:17:04.942Z,2.75
2018-08-06T15:19:33.572Z,2.70
2018-08-06T15:22:02.284Z,3.10
2018-08-06T15:24:30.905Z,2.83
2018-08-06T15:27:00.420Z,2.30
2018-08-06T15:29:29.436Z,2.45
2018-08-06T15:31:58.247Z,2.50
2018-08-06T15:34:26.914Z,2.50
2018-08-06T15:36:55.673Z,2.30
2018-08-06T15:39:24.394Z,2.65
2018-08-06T15:41:53.103Z,2.80
2018-08-06T15:44:22.029Z,2.90
2018-08-06T15:46:50.917Z,2.45
2018-08-06T15:49:19.604Z,2.92
2018-08-06T15:51:48.317Z,2.70
2018-08-06T15:54:16.985Z,2.85
2018-08-06T15:56:45.696Z,3.40
2018-08-06T15:59:14.348Z,3.10
2018-08-06T16:01:43.045Z,3.40
2018-08-06T16:04:11.753Z,2.75
2018-08-06T16:06:40.429Z,3.47
2018-08-06T16:09:09.250Z,2.83
2018-08-06T16:11:37.942Z,3.50
2018-08-06T16:14:06.787Z,3.47
2018-08-06T16:16:35.633Z,3.45
2018-08-06T16:19:04.293Z,3.30
2018-08-06T16:21:33.000Z,3.15
2018-08-06T16:24:01.807Z,2.92
2018-08-06T16:26:30.530Z,3.00
2018-08-06T16:28:59.338Z,3.37
2018-08-06T16:31:27.998Z,2.70
2018-08-06T16:33:56.706Z,3.52
2018-08-06T16:36:25.585Z,2.90
2018-08-06T16:38:54.396Z,2.62
2018-08-06T16:41:23.158Z,2.60
2018-08-06T16:43:52.049Z,3.20
2018-08-06T16:46:20.893Z,2.42
2018-08-06T16:48:49.653Z,2.60
2018-08-06T16:51:18.457Z,2.60
2018-08-06T16:53:47.336Z,2.80
2018-08-06T16:56:16.102Z,2.62
2018-08-06T16:58:44.851Z,2.50
2018-08-06T17:01:13.702Z,2.80
2018-08-06T17:03:42.429Z,2.37
2018-08-06T17:06:11.248Z,2.70
2018-08-06T17:08:39.942Z,2.75
2018-08-06T17:11:08.814Z,3.25
2018-08-06T17:13:37.540Z,2.77
2018-08-06T17:16:06.236Z,2.95
2018-08-06T17:18:35.845Z,2.83
2018-08-06T17:21:04.568Z,2.87
2018-08-06T17:23:33.336Z,2.72
2018-08-06T17:26:01.992Z,2.98
2018-08-06T17:28:30.738Z,2.70
2018-08-06T17:30:59.470Z,3.27
2018-08-06T17:33:28.264Z,3.27
2018-08-06T17:35:56.953Z,3.27
2018-08-06T17:38:25.668Z,2.80
2018-08-06T17:40:54.426Z,3.50
2018-08-06T17:43:23.117Z,3.15
2018-08-06T17:45:51.889Z,4.12
2018-08-06T17:48:20.613Z,3.50
2018-08-06T17:50:49.291Z,4.00
2018-08-06T17:53:17.965Z,4.13
2018-08-06T17:55:46.891Z,4.37
2018-08-06T17:58:15.491Z,5.50
2018-08-06T18:00:44.182Z,4.87
2018-08-06T18:03:12.859Z,4.77
2018-08-06T18:05:41.588Z,4.57
2018-08-06T18:08:10.273Z,4.77
2018-08-06T18:10:38.921Z,4.33
2018-08-06T18:13:07.643Z,4.80
2018-08-06T18:15:36.545Z,4.60
2018-08-06T18:18:06.298Z,5.10
2018-08-06T18:20:35.054Z,5.27
2018-08-06T18:23:03.774Z,5.90
2018-08-06T18:25:32.551Z,5.33
2018-08-06T18:28:01.275Z,5.97
2018-08-06T18:30:30.147Z,6.80
2018-08-06T18:32:58.872Z,6.27
2018-08-06T18:35:27.586Z,5.57
2018-08-06T18:37:59.171Z,6.53
2018-08-06T18:40:27.879Z,6.40
2018-08-06T18:42:56.673Z,7.37
2018-08-06T18:45:25.546Z,6.80
2018-08-06T18:47:54.286Z,6.80
2018-08-06T18:50:23.010Z,7.10
2018-08-06T18:52:51.989Z,7.10
2018-08-06T18:55:20.718Z,6.40
2018-08-06T18:57:49.616Z,5.57
2018-08-06T19:00:20.927Z,6.00
2018-08-06T19:02:49.917Z,6.60
2018-08-06T19:05:18.671Z,5.77
2018-08-06T19:07:47.413Z,6.20
2018-08-06T19:10:16.261Z,5.70
2018-08-06T19:12:50.146Z,5.60
2018-08-06T19:15:18.912Z,6.30
2018-08-06T19:17:52.813Z,5.13
2018-08-06T19:20:21.582Z,5.87
2018-08-06T19:22:50.358Z,5.73
2018-08-06T19:25:27.066Z,6.20
2018-08-06T19:27:56.289Z,6.00
2018-08-06T19:31:28.307Z,5.80
2018-08-06T19:33:58.040Z,5.77
2018-08-06T19:36:26.846Z,6.03
2018-08-06T19:38:55.625Z,6.30
2018-08-06T19:41:24.379Z,7.30
2018-08-06T19:43:53.066Z,6.80
2018-08-06T19:46:21.847Z,6.60
2018-08-06T19:48:54.771Z,6.23
2018-08-06T19:51:23.575Z,7.67
2018-08-06T19:53:52.453Z,8.43
2018-08-06T19:56:21.366Z,8.73
2018-08-06T19:58:50.347Z,8.57
2018-08-06T20:01:19.475Z,6.90
2018-08-06T20:03:48.339Z,7.67
2018-08-06T20:06:17.154Z,7.40
2018-08-06T20:08:46.120Z,7.80
2018-08-06T20:11:14.947Z,9.27
2018-08-06T20:13:43.866Z,9.03
2018-08-06T20:16:12.773Z,9.73
2018-08-06T20:18:41.595Z,8.70
2018-08-06T20:21:11.461Z,9.50
2018-08-06T20:23:44.818Z,9.37
2018-08-06T20:26:13.975Z,9.40
2018-08-06T20:28:43.297Z,9.40
2018-08-06T20:31:12.148Z,9.53
2018-08-06T20:33:41.171Z,9.23
2018-08-06T20:36:10.183Z,9.50
2018-08-06T20:38:38.944Z,8.67
2018-08-06T20:41:07.950Z,9.83
2018-08-06T20:43:36.714Z,8.73
2018-08-06T20:46:05.716Z,9.47
2018-08-06T20:48:34.571Z,9.10
2018-08-06T20:51:03.652Z,8.80
2018-08-06T20:53:32.362Z,9.40
2018-08-06T20:56:01.070Z,8.20
2018-08-06T20:58:29.950Z,8.33
2018-08-06T21:00:59.661Z,9.20
2018-08-06T21:03:28.406Z,10.53
2018-08-06T21:05:57.313Z,9.70
2018-08-06T21:08:26.005Z,9.70
2018-08-06T21:10:54.745Z,9.43
2018-08-06T21:13:23.487Z,10.43
2018-08-06T21:15:52.246Z,9.50
2018-08-06T21:18:21.039Z,9.70
2018-08-06T21:20:49.925Z,9.70
2018-08-06T21:23:18.654Z,9.20
2018-08-06T21:25:47.367Z,9.37
2018-08-06T21:28:16.212Z,9.33
2018-08-06T21:30:44.965Z,9.70
2018-08-06T21:33:13.750Z,9.90
2018-08-06T21:35:42.507Z,9.77
2018-08-06T21:38:12.444Z,9.50
2018-08-06T21:40:41.150Z,9.40
2018-08-06T21:43:09.897Z,9.77
2018-08-06T21:45:38.756Z,9.33
2018-08-06T21:48:07.442Z,9.40
2018-08-06T21:50:36.205Z,9.43
2018-08-06T21:53:04.867Z,9.17
2018-08-06T21:55:33.551Z,9.60
2018-08-06T21:58:02.258Z,9.73
2018-08-06T22:00:38.314Z,9.17
2018-08-06T22:03:10.826Z,8.77
2018-08-06T22:05:39.530Z,8.90
2018-08-06T22:08:08.477Z,8.43
2018-08-06T22:10:37.355Z,9.00
2018-08-06T22:13:06.735Z,7.97
2018-08-06T22:15:35.622Z,8.47
2018-08-06T22:18:04.434Z,8.73
2018-08-06T22:20:33.138Z,8.87
2018-08-06T22:23:01.843Z,9.47
2018-08-06T22:25:30.597Z,9.03
2018-08-06T22:27:59.442Z,7.70
2018-08-06T22:30:28.209Z,8.30
2018-08-06T22:32:56.967Z,8.57
2018-08-06T22:35:25.659Z,9.00
2018-08-06T22:37:54.366Z,8.90
2018-08-06T22:40:23.074Z,9.10
2018-08-06T22:42:51.805Z,7.93
2018-08-06T22:45:20.560Z,8.43
2018-08-06T22:47:49.287Z,8.03
2018-08-06T22:50:17.977Z,8.07
2018-08-06T22:52:46.708Z,7.60
2018-08-06T22:55:15.461Z,7.40
2018-08-06T22:57:44.183Z,8.10
2018-08-06T23:00:16.298Z,7.53
2018-08-06T23:02:45.538Z,8.20
2018-08-06T23:05:15.765Z,7.60
2018-08-06T23:07:44.587Z,7.70
2018-08-06T23:10:14.639Z,7.67
2018-08-06T23:12:43.436Z,6.97
2018-08-06T23:15:14.796Z,8.00
2018-08-06T23:17:43.992Z,6.63
2018-08-06T23:20:13.293Z,7.20
2018-08-06T23:22:42.140Z,7.90
2018-08-06T23:25:10.942Z,6.53
2018-08-06T23:27:39.715Z,6.80
2018-08-06T23:30:13.343Z,6.97
2018-08-06T23:32:42.319Z,5.90
2018-08-06T23:35:12.374Z,7.17
2018-08-06T23:37:42.364Z,6.10
2018-08-06T23:40:11.756Z,6.13
2018-08-06T23:42:41.065Z,6.00
2018-08-06T23:45:11.047Z,6.10
2018-08-06T23:47:40.557Z,5.83
2018-08-06T23:50:11.962Z,6.73
2018-08-06T23:52:42.073Z,6.47
2018-08-06T23:55:12.080Z,5.40
2018-08-06T23:57:40.759Z,5.57
